createdAt,value
2018-12-07T00:01:35.709Z,118.77
2018-12-07T00:04:06.256Z,96.73
2018-12-07T00:06:36.660Z,70.57
2018-12-07T00:09:07.330Z,81.37
2018-12-07T00:11:39.356Z,94.47
2018-12-07T00:14:09.805Z,104.00
2018-12-07T00:16:40.344Z,63.90
2018-12-07T00:19:11.443Z,78.47
2018-12-07T00:21:42.315Z,75.50
2018-12-07T00:24:13.552Z,122.43
2018-12-07T00:26:43.875Z,137.53
2018-12-07T00:29:14.618Z,85.93
2018-12-07T00:31:45.323Z,142.83
2018-12-07T00:34:15.700Z,121.13
2018-12-07T00:36:46.144Z,88.40
2018-12-07T00:39:16.558Z,129.40
2018-12-07T00:41:47.106Z,115.97
2018-12-07T00:44:17.158Z,124.33
2018-12-07T00:46:48.293Z,88.67
2018-12-07T00:49:18.834Z,129.87
2018-12-07T00:51:49.115Z,142.37
2018-12-07T00:54:19.643Z,109.80
2018-12-07T00:56:50.325Z,138.17
2018-12-07T00:59:20.482Z,96.50
2018-12-07T01:01:52.083Z,117.53
2018-12-07T01:04:23.696Z,90.10
2018-12-07T01:06:54.003Z,118.67
2018-12-07T01:09:25.816Z,106.40
2018-12-07T01:11:56.499Z,84.60
2018-12-07T01:14:26.463Z,55.13
2018-12-07T01:16:56.626Z,99.03
2018-12-07T01:19:27.759Z,105.10
2018-12-07T01:21:58.010Z,111.57
2018-12-07T01:24:28.068Z,137.27
2018-12-07T01:26:58.762Z,126.77
2018-12-07T01:29:29.715Z,139.37
2018-12-07T01:32:00.872Z,93.77
2018-12-07T01:34:31.175Z,118.37
2018-12-07T01:37:01.262Z,121.30
2018-12-07T01:39:31.456Z,136.70
2018-12-07T01:42:01.689Z,142.40
2018-12-07T01:44:32.255Z,127.33
2018-12-07T01:47:02.795Z,62.90
2018-12-07T01:49:32.509Z,131.50
2018-12-07T01:52:03.305Z,115.23
2018-12-07T01:54:33.910Z,127.60
2018-12-07T01:57:04.448Z,116.33
2018-12-07T01:59:34.817Z,127.47
2018-12-07T02:02:04.939Z,125.57
2018-12-07T02:04:35.243Z,123.87
2018-12-07T02:07:12.160Z,121.37
2018-12-07T02:09:42.151Z,107.73
2018-12-07T02:12:12.256Z,111.77
2018-12-07T02:14:42.355Z,114.83
2018-12-07T02:17:12.808Z,114.87
2018-12-07T02:19:42.889Z,130.90
2018-12-07T02:22:13.184Z,114.50
2018-12-07T02:24:43.428Z,81.20
2018-12-07T02:27:13.596Z,77.20
2018-12-07T02:29:43.604Z,138.87
2018-12-07T02:32:13.730Z,130.03
2018-12-07T02:34:43.552Z,109.43
2018-12-07T02:37:14.196Z,119.20
2018-12-07T02:39:44.526Z,90.30
2018-12-07T02:42:14.580Z,126.80
2018-12-07T02:44:44.921Z,143.47
2018-12-07T02:47:14.789Z,112.40
2018-12-07T02:49:45.985Z,139.00
2018-12-07T02:52:16.447Z,122.27
2018-12-07T02:54:47.048Z,142.53
2018-12-07T02:57:17.008Z,132.53
2018-12-07T02:59:47.371Z,151.20
2018-12-07T03:02:17.499Z,139.43
2018-12-07T03:04:47.726Z,139.47
2018-12-07T03:07:18.452Z,91.37
2018-12-07T03:09:49.305Z,94.77
2018-12-07T03:12:19.917Z,131.73
2018-12-07T03:14:50.990Z,133.47
2018-12-07T03:17:22.525Z,136.87
2018-12-07T03:19:52.946Z,141.90
2018-12-07T03:22:23.573Z,83.70
2018-12-07T03:24:53.859Z,148.77
2018-12-07T03:27:24.265Z,132.40
2018-12-07T03:29:54.877Z,133.23
2018-12-07T03:32:24.897Z,107.07
2018-12-07T03:34:55.341Z,126.37
2018-12-07T03:37:26.354Z,78.00
2018-12-07T03:39:57.444Z,164.83
2018-12-07T03:42:27.798Z,88.47
2018-12-07T03:44:57.905Z,84.07
2018-12-07T03:47:28.259Z,96.90
2018-12-07T03:49:58.613Z,152.17
2018-12-07T03:52:28.823Z,120.83
2018-12-07T03:54:58.944Z,143.80
2018-12-07T03:57:29.027Z,161.23
2018-12-07T03:59:59.820Z,165.47
2018-12-07T04:02:30.030Z,148.13
2018-12-07T04:05:00.163Z,132.13
2018-12-07T04:07:30.724Z,140.43
2018-12-07T04:10:00.677Z,145.73
2018-12-07T04:12:30.589Z,150.60
2018-12-07T04:15:00.345Z,124.13
2018-12-07T04:17:31.130Z,104.20
2018-12-07T04:20:01.537Z,183.73
2018-12-07T04:22:31.571Z,134.93
2018-12-07T04:25:01.609Z,99.37
2018-12-07T04:27:32.222Z,137.70
2018-12-07T04:30:13.165Z,149.77
2018-12-07T04:32:43.600Z,94.30
2018-12-07T04:35:14.223Z,106.03
2018-12-07T04:37:44.185Z,138.60
2018-12-07T04:40:14.040Z,122.80
2018-12-07T04:42:45.431Z,108.00
2018-12-07T04:45:15.529Z,132.17
2018-12-07T04:47:45.869Z,79.83
2018-12-07T04:50:15.911Z,137.13
2018-12-07T04:52:46.260Z,123.67
2018-12-07T04:55:16.317Z,148.53
2018-12-07T04:57:46.457Z,114.70
2018-12-07T05:00:16.523Z,153.73
2018-12-07T05:02:47.100Z,106.60
2018-12-07T05:05:16.921Z,121.63
2018-12-07T05:07:47.150Z,168.70
2018-12-07T05:10:17.548Z,133.40
2018-12-07T05:12:47.960Z,154.00
2018-12-07T05:15:18.405Z,71.60
2018-12-07T05:17:48.256Z,193.80
2018-12-07T05:20:18.764Z,164.20
2018-12-07T05:22:49.420Z,171.87
2018-12-07T05:25:25.969Z,185.77
2018-12-07T05:27:56.216Z,83.23
2018-12-07T05:30:28.662Z,92.03
2018-12-07T05:32:58.853Z,71.50
2018-12-07T05:35:29.565Z,134.00
2018-12-07T05:38:00.300Z,83.93
2018-12-07T05:40:30.496Z,90.17
2018-12-07T05:43:01.280Z,167.40
2018-12-07T05:45:31.790Z,111.43
2018-12-07T05:48:03.549Z,120.47
2018-12-07T05:50:34.002Z,111.37
2018-12-07T05:53:04.390Z,100.03
2018-12-07T05:55:34.209Z,94.00
2018-12-07T05:58:04.787Z,144.17
2018-12-07T06:00:34.746Z,109.93
2018-12-07T06:03:05.369Z,162.10
2018-12-07T06:05:35.940Z,120.10
2018-12-07T06:08:05.977Z,115.47
2018-12-07T06:10:36.809Z,145.50
2018-12-07T06:13:06.940Z,96.67
2018-12-07T06:15:37.209Z,92.93
2018-12-07T06:18:07.252Z,145.60
2018-12-07T06:20:37.426Z,125.37
2018-12-07T06:23:07.371Z,87.37
2018-12-07T06:25:38.487Z,88.40
2018-12-07T06:28:08.708Z,125.07
2018-12-07T06:30:39.013Z,74.43
2018-12-07T06:33:09.177Z,128.83
2018-12-07T06:35:39.319Z,123.10
2018-12-07T06:38:10.344Z,84.00
2018-12-07T06:40:40.711Z,123.10
2018-12-07T06:43:10.813Z,101.57
2018-12-07T06:45:41.136Z,116.57
2018-12-07T06:48:11.396Z,92.13
2018-12-07T06:50:43.041Z,101.87
2018-12-07T06:53:13.739Z,108.67
2018-12-07T06:55:44.063Z,119.73
2018-12-07T06:58:14.651Z,118.27
2018-12-07T07:00:44.916Z,104.10
2018-12-07T07:03:16.063Z,109.37
2018-12-07T07:05:46.267Z,117.33
2018-12-07T07:08:16.898Z,105.17
2018-12-07T07:10:47.525Z,119.53
2018-12-07T07:13:17.468Z,110.00
2018-12-07T07:15:47.380Z,93.10
2018-12-07T07:18:17.949Z,128.00
2018-12-07T07:20:48.024Z,100.50
2018-12-07T07:23:18.764Z,109.77
2018-12-07T07:25:49.326Z,117.73
2018-12-07T07:28:20.173Z,89.27
2018-12-07T07:30:51.023Z,124.00
2018-12-07T07:33:22.486Z,43.30
2018-12-07T07:35:52.624Z,97.60
2018-12-07T07:38:23.324Z,99.83
2018-12-07T07:40:54.020Z,109.17
2018-12-07T07:43:24.555Z,109.03
2018-12-07T07:45:54.893Z,100.47
2018-12-07T07:48:25.184Z,96.17
2018-12-07T07:50:55.157Z,95.00
2018-12-07T07:53:26.554Z,131.00
2018-12-07T07:55:57.209Z,129.80
2018-12-07T07:58:27.814Z,116.83
2018-12-07T08:00:59.229Z,104.53
2018-12-07T08:03:29.244Z,133.90
2018-12-07T08:05:59.604Z,143.10
2018-12-07T08:08:29.656Z,105.17
2018-12-07T08:10:59.644Z,127.77
2018-12-07T08:13:29.825Z,124.13
2018-12-07T08:16:00.132Z,151.40
2018-12-07T08:18:30.615Z,174.50
2018-12-07T08:21:00.973Z,146.40
2018-12-07T08:23:31.073Z,176.73
2018-12-07T08:26:01.302Z,175.63
2018-12-07T08:28:32.473Z,163.70
2018-12-07T08:31:03.668Z,182.47
2018-12-07T08:33:34.343Z,159.13
2018-12-07T08:36:04.715Z,196.33
2018-12-07T08:38:35.207Z,166.13
2018-12-07T08:41:06.104Z,173.77
2018-12-07T08:43:36.891Z,170.70
2018-12-07T08:46:06.758Z,172.17
2018-12-07T08:48:37.030Z,178.97
2018-12-07T08:51:07.525Z,166.70
2018-12-07T08:53:37.775Z,160.83
2018-12-07T08:56:07.913Z,191.23
2018-12-07T08:58:38.314Z,176.90
2018-12-07T09:01:08.816Z,165.73
2018-12-07T09:03:39.578Z,116.47
2018-12-07T09:06:09.608Z,162.43
2018-12-07T09:08:39.682Z,165.60
2018-12-07T09:11:10.269Z,166.73
2018-12-07T09:13:40.685Z,152.00
2018-12-07T09:16:11.176Z,153.90
2018-12-07T09:18:42.480Z,151.93
2018-12-07T09:21:12.675Z,131.53
2018-12-07T09:23:49.395Z,154.90
2018-12-07T09:26:15.197Z,148.10
2018-12-07T09:28:45.214Z,140.13
2018-12-07T09:31:15.455Z,165.80
2018-12-07T09:33:45.587Z,163.13
2018-12-07T09:36:16.232Z,147.07
2018-12-07T09:38:46.648Z,152.07
2018-12-07T09:41:16.616Z,170.73
2018-12-07T09:43:47.076Z,169.63
2018-12-07T09:46:17.663Z,168.00
2018-12-07T09:48:47.827Z,173.80
2018-12-07T09:51:18.045Z,206.60
2018-12-07T09:53:48.501Z,223.53
2018-12-07T09:56:18.744Z,223.37
2018-12-07T09:58:49.112Z,201.20
2018-12-07T10:01:19.097Z,193.87
2018-12-07T10:03:49.622Z,192.83
2018-12-07T10:06:20.641Z,200.63
2018-12-07T10:08:51.494Z,209.07
2018-12-07T10:11:22.127Z,178.93
2018-12-07T10:13:52.460Z,194.00
2018-12-07T10:16:22.776Z,171.17
2018-12-07T10:18:52.859Z,162.17
2018-12-07T10:21:23.015Z,170.20
2018-12-07T10:23:52.997Z,161.60
2018-12-07T10:26:23.235Z,168.97
2018-12-07T10:28:53.347Z,154.27
2018-12-07T10:31:23.694Z,135.87
2018-12-07T10:33:54.247Z,153.47
2018-12-07T10:36:25.632Z,142.93
2018-12-07T10:38:56.231Z,139.13
2018-12-07T10:41:26.417Z,155.03
2018-12-07T10:43:57.255Z,133.23
2018-12-07T10:46:27.570Z,130.47
2018-12-07T10:48:57.781Z,142.60
2018-12-07T10:51:28.333Z,91.53
2018-12-07T10:53:58.442Z,126.30
2018-12-07T10:56:28.620Z,124.17
2018-12-07T10:58:58.946Z,121.60
2018-12-07T11:01:33.777Z,132.73
2018-12-07T11:04:08.887Z,120.77
2018-12-07T11:06:44.232Z,112.20
2018-12-07T11:09:19.885Z,101.27
2018-12-07T11:11:55.119Z,109.23
2018-12-07T11:15:33.048Z,102.97
2018-12-07T11:18:08.399Z,109.47
2018-12-07T11:20:43.951Z,103.47
2018-12-07T11:23:19.661Z,119.63
2018-12-07T11:25:54.838Z,102.83
2018-12-07T11:28:30.166Z,101.17
2018-12-07T11:31:05.456Z,91.50
2018-12-07T11:33:40.859Z,88.20
2018-12-07T11:36:11.070Z,84.07
2018-12-07T11:38:40.939Z,96.20
2018-12-07T11:41:14.154Z,90.03
2018-12-07T11:43:46.788Z,75.47
2018-12-07T11:46:17.980Z,80.27
2018-12-07T11:48:48.083Z,77.10
2018-12-07T11:51:18.851Z,79.03
2018-12-07T11:53:49.370Z,76.20
2018-12-07T11:58:54.903Z,72.53
2018-12-07T12:01:25.076Z,74.57
2018-12-07T12:03:55.064Z,69.93
2018-12-07T12:06:25.679Z,67.77
2018-12-07T12:08:56.092Z,71.30
2018-12-07T12:11:29.009Z,72.10
2018-12-07T12:13:59.057Z,75.33
2018-12-07T12:16:28.982Z,69.43
2018-12-07T12:18:59.213Z,69.40
2018-12-07T12:21:29.899Z,71.03
2018-12-07T12:24:00.592Z,74.37
2018-12-07T12:26:30.786Z,83.80
2018-12-07T12:29:01.076Z,77.37
2018-12-07T12:31:31.927Z,74.27
2018-12-07T12:34:02.461Z,65.47
2018-12-07T12:36:32.382Z,71.83
2018-12-07T12:39:06.100Z,74.50
2018-12-07T12:41:37.035Z,67.73
2018-12-07T12:44:07.477Z,66.47
2018-12-07T12:46:37.926Z,68.53
2018-12-07T12:49:09.082Z,73.07
2018-12-07T12:51:39.760Z,68.20
2018-12-07T12:54:10.213Z,70.30
2018-12-07T12:56:41.301Z,78.50
2018-12-07T12:59:11.621Z,71.47
2018-12-07T13:01:41.747Z,77.40
2018-12-07T13:04:12.478Z,78.87
2018-12-07T13:06:43.765Z,75.37
2018-12-07T13:09:13.808Z,77.90
2018-12-07T13:11:44.246Z,81.53
2018-12-07T13:14:14.397Z,78.60
2018-12-07T13:16:44.655Z,76.20
2018-12-07T13:19:15.308Z,79.40
2018-12-07T13:21:45.574Z,87.13
2018-12-07T13:24:16.027Z,101.37
2018-12-07T13:26:46.259Z,77.07
2018-12-07T13:29:15.976Z,80.53
2018-12-07T13:31:47.121Z,83.07
2018-12-07T13:34:17.578Z,73.63
2018-12-07T13:36:48.171Z,87.83
2018-12-07T13:39:18.813Z,80.27
2018-12-07T13:41:50.504Z,83.50
2018-12-07T13:44:22.179Z,95.73
2018-12-07T13:46:52.715Z,92.50
2018-12-07T13:49:24.181Z,98.50
2018-12-07T13:51:55.396Z,89.20
2018-12-07T13:54:26.152Z,81.70
2018-12-07T13:56:57.304Z,90.87
2018-12-07T13:59:27.877Z,84.50
2018-12-07T14:01:59.341Z,84.50
2018-12-07T14:04:36.246Z,93.30
2018-12-07T14:07:06.457Z,101.23
2018-12-07T14:09:37.179Z,100.53
2018-12-07T14:12:13.603Z,98.43
2018-12-07T14:14:44.040Z,105.60
2018-12-07T14:17:14.039Z,100.50
2018-12-07T14:19:44.269Z,102.27
2018-12-07T14:22:15.230Z,112.37
2018-12-07T14:24:45.647Z,112.87
2018-12-07T14:27:16.293Z,108.03
2018-12-07T14:29:46.899Z,117.03
2018-12-07T14:32:17.492Z,114.73
2018-12-07T14:34:48.141Z,103.90
2018-12-07T14:37:18.989Z,127.90
2018-12-07T14:39:49.715Z,125.83
2018-12-07T14:42:20.398Z,131.80
2018-12-07T14:44:50.821Z,109.53
2018-12-07T14:47:22.154Z,127.80
2018-12-07T14:49:52.843Z,124.73
2018-12-07T14:52:23.187Z,129.37
2018-12-07T14:54:55.279Z,124.57
2018-12-07T14:57:25.653Z,127.60
2018-12-07T14:59:57.340Z,158.23
2018-12-07T15:02:27.518Z,130.87
2018-12-07T15:04:58.600Z,222.20
2018-12-07T15:07:28.957Z,123.30
2018-12-07T15:09:59.818Z,161.50
2018-12-07T15:12:30.250Z,124.73
2018-12-07T15:15:00.771Z,150.70
2018-12-07T15:17:31.188Z,137.03
2018-12-07T15:20:01.829Z,147.93
2018-12-07T15:22:31.958Z,142.33
2018-12-07T15:25:02.699Z,187.77
2018-12-07T15:27:32.798Z,136.07
2018-12-07T15:30:02.819Z,171.53
2018-12-07T15:32:33.175Z,156.67
2018-12-07T15:35:03.404Z,158.77
2018-12-07T15:37:33.982Z,119.67
2018-12-07T15:40:05.474Z,132.70
2018-12-07T15:42:35.654Z,117.30
2018-12-07T15:45:07.210Z,103.73
2018-12-07T15:47:37.487Z,95.63
2018-12-07T15:50:09.486Z,95.50
2018-12-07T15:52:40.012Z,98.80
2018-12-07T15:55:10.561Z,106.33
2018-12-07T15:57:43.677Z,107.50
2018-12-07T16:00:14.733Z,123.53
2018-12-07T16:02:44.648Z,109.37
2018-12-07T16:05:15.699Z,109.87
2018-12-07T16:07:50.383Z,135.00
2018-12-07T16:10:26.012Z,139.20
2018-12-07T16:12:56.326Z,154.87
2018-12-07T16:15:27.214Z,157.60
2018-12-07T16:17:58.319Z,153.77
2018-12-07T16:20:29.194Z,171.77
2018-12-07T16:23:03.064Z,171.60
2018-12-07T16:25:33.347Z,185.23
2018-12-07T16:28:04.312Z,177.70
2018-12-07T16:30:35.259Z,171.30
2018-12-07T16:33:06.920Z,173.47
2018-12-07T16:35:39.632Z,206.90
2018-12-07T16:38:09.790Z,202.97
2018-12-07T16:40:42.505Z,197.70
2018-12-07T16:43:13.589Z,196.37
2018-12-07T16:45:44.087Z,200.03
2018-12-07T16:48:14.496Z,226.77
2018-12-07T16:50:46.579Z,176.20
2018-12-07T16:53:16.960Z,194.40
2018-12-07T16:55:47.252Z,178.77
2018-12-07T16:58:17.967Z,185.70
2018-12-07T17:00:48.678Z,178.13
2018-12-07T17:03:19.333Z,183.07
2018-12-07T17:05:50.762Z,185.97
2018-12-07T17:08:21.375Z,190.90
2018-12-07T17:10:52.392Z,166.60
2018-12-07T17:13:22.772Z,178.67
2018-12-07T17:15:53.735Z,177.07
2018-12-07T17:18:24.359Z,171.70
2018-12-07T17:20:55.261Z,169.93
2018-12-07T17:23:25.497Z,190.83
2018-12-07T17:25:57.428Z,174.43
2018-12-07T17:28:28.160Z,211.73
2018-12-07T17:31:00.204Z,188.50
2018-12-07T17:33:30.638Z,197.17
2018-12-07T17:36:04.065Z,199.70
2018-12-07T17:38:34.369Z,182.73
2018-12-07T17:41:04.905Z,182.90
2018-12-07T17:43:35.483Z,158.60
2018-12-07T17:46:06.706Z,171.23
2018-12-07T17:48:37.078Z,160.80
2018-12-07T17:51:08.627Z,155.80
2018-12-07T17:53:39.379Z,150.30
2018-12-07T17:56:10.277Z,133.97
2018-12-07T17:58:40.875Z,128.90
2018-12-07T18:01:11.702Z,123.90
2018-12-07T18:03:42.417Z,130.30
2018-12-07T18:06:13.689Z,137.33
2018-12-07T18:08:44.570Z,120.37
2018-12-07T18:11:15.780Z,124.77
2018-12-07T18:13:48.075Z,110.93
2018-12-07T18:16:19.156Z,110.47
2018-12-07T18:18:49.571Z,110.03
2018-12-07T18:21:21.022Z,104.00
2018-12-07T18:23:51.854Z,107.83
2018-12-07T18:26:23.031Z,103.00
2018-12-07T18:28:53.549Z,80.37
2018-12-07T18:31:24.696Z,86.10
2018-12-07T18:33:55.290Z,89.70
2018-12-07T18:36:26.768Z,80.47
2018-12-07T18:38:57.748Z,93.10
2018-12-07T18:41:28.420Z,87.70
2018-12-07T18:43:59.319Z,91.00
2018-12-07T18:46:30.139Z,115.37
2018-12-07T18:49:01.358Z,81.57
2018-12-07T18:51:32.224Z,96.40
2018-12-07T18:54:12.986Z,86.27
2018-12-07T18:56:47.456Z,91.90
2018-12-07T18:59:18.696Z,91.67
2018-12-07T19:01:53.524Z,99.20
2018-12-07T19:04:25.515Z,66.63
2018-12-07T19:06:56.505Z,99.97
2018-12-07T19:09:28.372Z,98.47
2018-12-07T19:12:03.293Z,91.53
2018-12-07T19:14:35.161Z,89.43
2018-12-07T19:17:07.413Z,71.87
2018-12-07T19:19:39.016Z,92.37
2018-12-07T19:22:09.448Z,94.80
2018-12-07T19:24:44.441Z,97.07
2018-12-07T19:27:14.765Z,90.70
2018-12-07T19:29:50.554Z,89.67
2018-12-07T19:32:21.405Z,88.70
2018-12-07T19:34:53.572Z,98.80
2018-12-07T19:37:24.917Z,92.33
2018-12-07T19:39:56.647Z,91.03
2018-12-07T19:42:28.889Z,94.73
2018-12-07T19:44:59.179Z,88.63
2018-12-07T19:47:30.252Z,107.33
2018-12-07T19:50:03.593Z,97.70
2018-12-07T19:52:34.778Z,94.47
2018-12-07T19:55:06.354Z,94.73
2018-12-07T19:57:37.597Z,86.30
2018-12-07T20:00:11.097Z,80.97
2018-12-07T20:02:41.956Z,91.80
2018-12-07T20:05:13.508Z,92.23
2018-12-07T20:07:45.372Z,88.63
2018-12-07T20:10:16.552Z,85.07
2018-12-07T20:12:50.729Z,77.57
2018-12-07T20:15:21.197Z,89.03
2018-12-07T20:17:51.686Z,86.50
2018-12-07T20:20:24.260Z,71.03
2018-12-07T20:22:55.119Z,76.57
2018-12-07T20:25:27.095Z,94.93
2018-12-07T20:27:57.508Z,104.70
2018-12-07T20:30:28.012Z,102.37
2018-12-07T20:32:58.593Z,74.90
2018-12-07T20:35:30.090Z,85.23
2018-12-07T20:38:02.602Z,86.67
2018-12-07T20:40:36.522Z,96.17
2018-12-07T20:43:07.990Z,92.83
2018-12-07T20:45:39.041Z,95.50
2018-12-07T20:48:10.019Z,91.63
2018-12-07T20:50:41.142Z,94.13
2018-12-07T20:53:11.807Z,86.43
2018-12-07T20:55:42.459Z,102.50
2018-12-07T20:58:13.067Z,98.67
2018-12-07T21:00:44.875Z,89.43
2018-12-07T21:03:16.264Z,108.30
2018-12-07T21:06:32.497Z,107.90
2018-12-07T21:09:35.228Z,101.70
2018-12-07T21:13:22.358Z,107.60
2018-12-07T21:15:53.789Z,110.73
2018-12-07T21:18:24.787Z,116.20
2018-12-07T21:20:55.717Z,112.13
2018-12-07T21:23:26.373Z,103.50
2018-12-07T21:26:01.982Z,105.73
2018-12-07T21:28:32.177Z,112.90
2018-12-07T21:31:04.445Z,102.67
2018-12-07T21:34:46.493Z,120.80
2018-12-07T21:37:20.123Z,120.50
2018-12-07T21:40:00.036Z,130.20
2018-12-07T21:42:30.946Z,123.30
2018-12-07T21:48:19.575Z,119.03
2018-12-07T22:01:06.913Z,133.83
2018-12-07T22:03:39.967Z,137.73
2018-12-07T22:06:13.576Z,150.27
2018-12-07T22:08:46.889Z,154.00
2018-12-07T22:11:18.151Z,146.07
2018-12-07T22:13:50.440Z,149.60
2018-12-07T22:16:24.999Z,164.17
2018-12-07T22:18:58.920Z,162.97
2018-12-07T22:21:34.221Z,152.37
2018-12-07T22:24:05.913Z,147.70
2018-12-07T22:26:36.997Z,120.57
2018-12-07T22:29:09.239Z,142.60
2018-12-07T22:31:39.936Z,122.00
2018-12-07T22:34:10.612Z,140.43
2018-12-07T22:36:45.688Z,126.63
2018-12-07T22:39:16.325Z,149.97
2018-12-07T22:41:47.092Z,126.37
2018-12-07T22:44:19.267Z,147.17
2018-12-07T22:46:50.803Z,139.80
2018-12-07T22:49:21.958Z,127.40
2018-12-07T22:51:53.091Z,144.57
2018-12-07T22:54:23.964Z,162.80
2018-12-07T22:56:55.832Z,145.57
2018-12-07T22:59:26.256Z,131.70
2018-12-07T23:01:57.566Z,147.83
2018-12-07T23:04:28.489Z,172.07
2018-12-07T23:06:59.743Z,146.23
2018-12-07T23:09:30.602Z,126.67
2018-12-07T23:14:43.056Z,162.63
2018-12-07T23:17:13.832Z,157.57
2018-12-07T23:19:44.900Z,154.63
2018-12-07T23:22:16.367Z,135.50
2018-12-07T23:24:46.667Z,157.40
2018-12-07T23:27:17.204Z,173.17
2018-12-07T23:29:48.258Z,127.47
2018-12-07T23:32:20.052Z,139.47
2018-12-07T23:34:55.444Z,169.10
2018-12-07T23:37:26.009Z,127.27
2018-12-07T23:39:56.729Z,149.17
2018-12-07T23:42:29.831Z,160.50
2018-12-07T23:45:01.755Z,73.37
2018-12-07T23:47:32.879Z,148.37
2018-12-07T23:50:04.255Z,127.30
2018-12-07T23:52:33.907Z,154.20
2018-12-07T23:55:05.259Z,127.67
2018-12-07T23:57:35.686Z,137.40
